createdAt,value
2018-04-24T00:01:32.473Z,72.80
2018-04-24T00:04:01.061Z,73.30
2018-04-24T00:06:29.687Z,74.00
2018-04-24T00:08:58.162Z,74.70
2018-04-24T00:11:27.469Z,75.00
2018-04-24T00:13:56.210Z,75.00
2018-04-24T00:16:24.927Z,75.30
2018-04-24T00:18:53.671Z,74.90
2018-04-24T00:21:22.250Z,75.40
2018-04-24T00:23:51.506Z,75.70
2018-04-24T00:26:20.016Z,75.70
2018-04-24T00:28:48.573Z,75.80
2018-04-24T00:31:17.069Z,75.70
2018-04-24T00:33:45.567Z,75.60
2018-04-24T00:36:14.107Z,75.30
2018-04-24T00:38:44.809Z,75.00
2018-04-24T00:41:13.333Z,75.00
2018-04-24T00:43:41.819Z,75.10
2018-04-24T00:46:10.307Z,75.20
2018-04-24T00:48:38.928Z,75.60
2018-04-24T00:51:07.485Z,75.50
2018-04-24T00:53:41.020Z,75.60
2018-04-24T00:56:09.654Z,75.90
2018-04-24T00:58:38.187Z,75.60
2018-04-24T01:01:06.709Z,75.90
2018-04-24T01:03:35.249Z,75.70
2018-04-24T01:06:03.791Z,75.90
2018-04-24T01:08:32.310Z,75.90
2018-04-24T01:11:00.847Z,76.20
2018-04-24T01:13:29.339Z,76.20
2018-04-24T01:15:57.860Z,76.70
2018-04-24T01:18:26.433Z,76.60
2018-04-24T01:20:54.926Z,76.20
2018-04-24T01:23:23.541Z,76.00
2018-04-24T01:25:52.027Z,75.90
2018-04-24T01:28:20.576Z,75.50
2018-04-24T01:30:49.128Z,75.20
2018-04-24T01:33:18.425Z,75.10
2018-04-24T01:35:47.021Z,75.20
2018-04-24T01:38:15.514Z,74.80
2018-04-24T01:40:44.035Z,74.20
2018-04-24T01:43:12.600Z,73.30
2018-04-24T01:45:41.285Z,73.50
2018-04-24T01:48:10.054Z,72.90
2018-04-24T01:50:38.534Z,73.10
2018-04-24T01:53:07.040Z,72.90
2018-04-24T01:55:35.593Z,73.70
2018-04-24T01:58:04.854Z,73.90
2018-04-24T02:00:33.356Z,73.90
2018-04-24T02:03:02.620Z,74.00
2018-04-24T02:05:31.596Z,73.90
2018-04-24T02:08:00.100Z,73.70
2018-04-24T02:10:28.643Z,73.70
2018-04-24T02:12:57.182Z,73.40
2018-04-24T02:15:25.659Z,72.80
2018-04-24T02:17:54.206Z,73.10
2018-04-24T02:20:22.753Z,73.50
2018-04-24T02:22:51.538Z,73.30
2018-04-24T02:25:20.845Z,73.30
2018-04-24T02:27:49.379Z,73.20
2018-04-24T02:30:17.875Z,73.40
2018-04-24T02:32:46.451Z,72.60
2018-04-24T02:35:14.993Z,72.70
2018-04-24T02:37:43.463Z,72.60
2018-04-24T02:40:12.021Z,72.70
2018-04-24T02:42:40.541Z,72.80
2018-04-24T02:45:09.075Z,72.50
2018-04-24T02:47:38.396Z,72.60
2018-04-24T02:50:07.677Z,72.60
2018-04-24T02:52:36.223Z,72.60
2018-04-24T02:55:04.780Z,72.50
2018-04-24T02:57:33.294Z,72.50
2018-04-24T03:00:01.911Z,72.50
2018-04-24T03:02:30.453Z,72.30
2018-04-24T03:04:59.016Z,72.30
2018-04-24T03:07:27.502Z,72.50
2018-04-24T03:09:56.037Z,71.40
2018-04-24T03:12:24.603Z,71.70
2018-04-24T03:14:53.895Z,71.70
2018-04-24T03:17:22.741Z,71.70
2018-04-24T03:19:51.276Z,71.70
2018-04-24T03:22:19.889Z,71.20
2018-04-24T03:24:48.796Z,71.10
2018-04-24T03:27:17.486Z,71.30
2018-04-24T03:29:46.493Z,71.80
2018-04-24T03:32:14.985Z,70.90
2018-04-24T03:34:43.498Z,71.00
2018-04-24T03:37:12.013Z,70.90
2018-04-24T03:39:40.656Z,70.60
2018-04-24T03:42:09.150Z,70.40
2018-04-24T03:44:38.279Z,70.30
2018-04-24T03:47:06.781Z,70.10
2018-04-24T03:49:35.387Z,70.30
2018-04-24T03:52:04.167Z,69.90
2018-04-24T03:54:32.684Z,69.70
2018-04-24T03:57:01.311Z,69.50
2018-04-24T03:59:29.806Z,69.10
2018-04-24T04:01:58.368Z,69.60
2018-04-24T04:04:26.899Z,69.50
2018-04-24T04:06:55.417Z,69.50
2018-04-24T04:09:23.962Z,69.50
2018-04-24T04:11:52.980Z,69.10
2018-04-24T04:14:21.468Z,68.90
2018-04-24T04:16:50.884Z,68.80
2018-04-24T04:19:31.072Z,68.80
2018-04-24T04:22:11.554Z,68.80
2018-04-24T04:24:44.777Z,68.80
2018-04-24T04:27:14.173Z,68.10
2018-04-24T04:29:42.662Z,68.20
2018-04-24T04:32:11.368Z,68.00
2018-04-24T04:34:39.886Z,68.10
2018-04-24T04:37:08.423Z,67.00
2018-04-24T04:39:37.717Z,67.70
2018-04-24T04:42:06.607Z,67.70
2018-04-24T04:44:35.347Z,67.90
2018-04-24T04:47:04.014Z,68.20
2018-04-24T04:49:32.541Z,68.40
2018-04-24T04:52:01.023Z,68.00
2018-04-24T04:54:29.515Z,67.80
2018-04-24T04:56:58.009Z,67.50
2018-04-24T04:59:26.490Z,67.70
2018-04-24T05:01:54.994Z,66.90
2018-04-24T05:04:23.507Z,67.10
2018-04-24T05:06:52.064Z,67.00
2018-04-24T05:09:20.705Z,67.10
2018-04-24T05:11:50.505Z,67.60
2018-04-24T05:14:19.640Z,67.40
2018-04-24T05:16:48.148Z,67.20
2018-04-24T05:19:16.760Z,66.30
2018-04-24T05:21:45.244Z,66.50
2018-04-24T05:24:13.741Z,66.40
2018-04-24T05:26:42.236Z,66.80
2018-04-24T05:29:11.421Z,66.10
2018-04-24T05:31:40.670Z,66.80
2018-04-24T05:34:09.171Z,66.80
2018-04-24T05:36:37.662Z,66.20
2018-04-24T05:39:06.202Z,66.80
2018-04-24T05:41:34.717Z,66.50
2018-04-24T05:44:03.207Z,65.80
2018-04-24T05:46:31.696Z,65.90
2018-04-24T05:49:00.189Z,66.70
2018-04-24T05:51:28.797Z,66.10
2018-04-24T05:53:57.295Z,65.70
2018-04-24T05:56:25.839Z,65.70
2018-04-24T05:58:54.389Z,64.80
2018-04-24T06:01:22.903Z,65.00
2018-04-24T06:03:51.682Z,64.80
2018-04-24T06:06:20.193Z,64.60
2018-04-24T06:08:48.789Z,64.90
2018-04-24T06:11:17.305Z,64.60
2018-04-24T06:13:45.793Z,64.40
2018-04-24T06:16:14.396Z,61.50
2018-04-24T06:18:43.698Z,60.70
2018-04-24T06:21:12.207Z,60.70
2018-04-24T06:23:41.537Z,59.50
2018-04-24T06:26:10.052Z,59.60
2018-04-24T06:28:38.643Z,59.00
2018-04-24T06:31:07.155Z,59.40
2018-04-24T06:33:35.938Z,61.90
2018-04-24T06:36:04.701Z,60.90
2018-04-24T06:38:33.142Z,60.00
2018-04-24T06:41:01.655Z,60.10
2018-04-24T06:43:30.165Z,58.90
2018-04-24T06:45:58.749Z,59.80
2018-04-24T06:48:27.280Z,59.20
2018-04-24T06:50:55.788Z,60.30
2018-04-24T06:53:24.406Z,59.80
2018-04-24T06:55:52.936Z,61.40
2018-04-24T06:58:21.880Z,62.40
2018-04-24T07:00:51.275Z,62.40
2018-04-24T07:03:19.774Z,62.40
2018-04-24T07:05:48.308Z,61.90
2018-04-24T07:08:16.831Z,61.70
2018-04-24T07:10:45.324Z,61.40
2018-04-24T07:13:13.845Z,60.60
2018-04-24T07:15:42.697Z,62.00
2018-04-24T07:18:11.877Z,61.50
2018-04-24T07:20:40.883Z,62.10
2018-04-24T07:23:09.380Z,60.40
2018-04-24T07:25:37.999Z,60.80
2018-04-24T07:28:06.615Z,60.80
2018-04-24T07:30:35.715Z,60.20
2018-04-24T07:33:04.244Z,60.80
2018-04-24T07:35:32.736Z,59.80
2018-04-24T07:38:01.240Z,59.70
2018-04-24T07:40:29.740Z,59.10
2018-04-24T07:42:58.228Z,58.80
2018-04-24T07:45:26.741Z,59.20
2018-04-24T07:47:55.249Z,59.10
2018-04-24T07:50:23.853Z,58.80
2018-04-24T07:52:53.107Z,58.20
2018-04-24T07:55:21.608Z,58.20
2018-04-24T07:57:50.112Z,58.00
2018-04-24T08:00:19.405Z,56.70
2018-04-24T08:02:48.627Z,56.60
2018-04-24T08:05:17.144Z,57.00
2018-04-24T08:07:45.660Z,56.60
2018-04-24T08:10:14.202Z,56.80
2018-04-24T08:12:42.700Z,56.30
2018-04-24T08:15:11.183Z,56.10
2018-04-24T08:17:39.775Z,56.80
2018-04-24T08:20:08.330Z,56.00
2018-04-24T08:22:39.208Z,56.10
2018-04-24T08:25:08.028Z,56.10
2018-04-24T08:27:36.584Z,56.20
2018-04-24T08:30:05.161Z,55.20
2018-04-24T08:32:33.703Z,54.40
2018-04-24T08:35:02.366Z,55.40
2018-04-24T08:37:32.696Z,55.40
2018-04-24T08:40:01.197Z,55.10
2018-04-24T08:42:29.847Z,54.90
2018-04-24T08:44:58.343Z,55.20
2018-04-24T08:47:26.983Z,55.40
2018-04-24T08:49:55.553Z,56.30
2018-04-24T08:52:24.089Z,55.50
2018-04-24T08:54:53.023Z,55.20
2018-04-24T08:57:22.169Z,55.90
2018-04-24T08:59:50.663Z,56.30
2018-04-24T09:02:19.449Z,56.70
2018-04-24T09:04:48.543Z,55.40
2018-04-24T09:07:17.035Z,54.50
2018-04-24T09:09:45.544Z,54.10
2018-04-24T09:12:14.172Z,55.40
2018-04-24T09:14:42.725Z,54.60
2018-04-24T09:17:11.251Z,54.30
2018-04-24T09:19:39.871Z,54.60
2018-04-24T09:22:09.046Z,54.50
2018-04-24T09:24:38.121Z,54.20
2018-04-24T09:27:07.156Z,54.60
2018-04-24T09:29:35.810Z,55.30
2018-04-24T09:32:04.863Z,56.30
2018-04-24T09:34:44.749Z,55.10
2018-04-24T09:37:13.710Z,55.10
2018-04-24T09:39:44.124Z,56.20
2018-04-24T09:42:13.266Z,54.10
2018-04-24T09:44:42.284Z,54.90
2018-04-24T09:47:10.956Z,54.90
2018-04-24T09:49:39.616Z,55.10
2018-04-24T09:52:08.414Z,55.70
2018-04-24T09:54:37.258Z,56.20
2018-04-24T09:57:06.396Z,55.30
2018-04-24T09:59:35.262Z,55.10
2018-04-24T10:02:04.254Z,54.50
2018-04-24T10:04:33.071Z,55.20
2018-04-24T10:07:01.797Z,56.10
2018-04-24T10:11:54.622Z,55.90
2018-04-24T10:14:23.234Z,56.50
2018-04-24T10:16:51.762Z,56.80
2018-04-24T10:19:20.293Z,56.20
2018-04-24T10:21:49.281Z,57.20
2018-04-24T10:24:18.051Z,56.40
2018-04-24T10:26:47.040Z,55.80
2018-04-24T10:29:15.829Z,55.80
2018-04-24T10:31:45.185Z,56.10
2018-04-24T10:34:16.067Z,56.00
2018-04-24T10:36:44.721Z,56.40
2018-04-24T10:39:13.444Z,56.70
2018-04-24T10:41:42.539Z,56.70
2018-04-24T10:44:11.206Z,57.00
2018-04-24T10:46:40.321Z,57.00
2018-04-24T10:49:09.413Z,56.70
2018-04-24T10:51:38.531Z,56.00
2018-04-24T10:54:07.127Z,55.50
2018-04-24T10:56:36.699Z,55.70
2018-04-24T10:59:06.209Z,55.30
2018-04-24T11:01:35.250Z,55.10
2018-04-24T11:04:03.970Z,54.90
2018-04-24T11:06:33.162Z,53.70
2018-04-24T11:09:02.078Z,53.70
2018-04-24T11:11:31.244Z,53.70
2018-04-24T11:14:00.368Z,53.50
2018-04-24T11:16:28.906Z,54.60
2018-04-24T11:18:57.398Z,54.90
2018-04-24T11:21:26.109Z,55.60
2018-04-24T11:23:55.381Z,56.80
2018-04-24T11:26:23.858Z,56.80
2018-04-24T11:28:52.354Z,56.90
2018-04-24T11:31:20.971Z,55.80
2018-04-24T11:33:49.852Z,55.80
2018-04-24T11:36:21.170Z,55.20
2018-04-24T11:38:49.953Z,54.50
2018-04-24T11:41:18.734Z,54.50
2018-04-24T11:43:47.885Z,54.70
2018-04-24T11:46:17.332Z,55.00
2018-04-24T11:48:46.474Z,55.30
2018-04-24T11:51:15.327Z,55.20
2018-04-24T11:53:45.832Z,56.60
2018-04-24T11:56:14.574Z,56.50
2018-04-24T11:58:43.222Z,54.50
2018-04-24T12:01:12.356Z,53.20
2018-04-24T12:03:41.376Z,53.50
2018-04-24T12:06:10.468Z,54.20
2018-04-24T12:08:39.649Z,55.30
2018-04-24T12:11:08.674Z,57.20
2018-04-24T12:13:37.837Z,58.50
2018-04-24T12:16:06.377Z,58.70
2018-04-24T12:18:34.875Z,59.00
2018-04-24T12:21:03.429Z,59.60
2018-04-24T12:23:31.927Z,59.80
2018-04-24T12:26:00.428Z,61.60
2018-04-24T12:28:28.983Z,60.80
2018-04-24T12:30:57.560Z,60.40
2018-04-24T12:33:26.143Z,61.30
2018-04-24T12:35:54.697Z,61.40
2018-04-24T12:38:23.196Z,61.80
2018-04-24T12:40:51.695Z,62.50
2018-04-24T12:43:20.200Z,62.20
2018-04-24T12:45:48.724Z,63.40
2018-04-24T12:48:17.257Z,62.90
2018-04-24T12:50:45.785Z,63.30
2018-04-24T12:53:14.414Z,64.50
2018-04-24T12:55:42.950Z,66.00
2018-04-24T12:58:11.647Z,66.90
2018-04-24T13:00:40.608Z,66.60
2018-04-24T13:03:09.434Z,66.20
2018-04-24T13:05:38.529Z,65.80
2018-04-24T13:08:07.290Z,63.20
2018-04-24T13:10:36.280Z,63.10
2018-04-24T13:13:04.946Z,64.40
2018-04-24T13:15:34.166Z,63.60
2018-04-24T13:18:03.109Z,63.80
2018-04-24T13:23:06.197Z,62.20
2018-04-24T13:25:35.062Z,60.70
2018-04-24T13:28:03.944Z,61.90
2018-04-24T13:30:32.441Z,61.30
2018-04-24T13:33:03.310Z,60.10
2018-04-24T13:35:32.407Z,60.10
2018-04-24T13:38:00.903Z,59.90
2018-04-24T13:40:29.381Z,60.00
2018-04-24T13:42:57.876Z,59.60
2018-04-24T13:45:26.571Z,60.50
2018-04-24T13:47:55.678Z,60.40
2018-04-24T13:50:24.180Z,60.50
2018-04-24T13:52:52.808Z,61.20
2018-04-24T13:55:21.434Z,60.70
2018-04-24T13:57:50.423Z,61.20
2018-04-24T14:00:19.447Z,59.90
2018-04-24T14:02:49.440Z,60.20
2018-04-24T14:05:17.974Z,60.10
2018-04-24T14:07:46.702Z,60.00
2018-04-24T14:10:15.391Z,60.00
2018-04-24T14:12:44.171Z,60.40
2018-04-24T14:15:13.249Z,60.30
2018-04-24T14:17:41.951Z,59.90
2018-04-24T14:20:11.047Z,60.10
2018-04-24T14:22:39.673Z,60.50
2018-04-24T14:25:08.415Z,60.70
2018-04-24T14:27:37.111Z,59.90
2018-04-24T14:30:05.811Z,61.10
2018-04-24T14:32:35.101Z,60.50
2018-04-24T14:35:03.911Z,63.50
2018-04-24T14:37:32.576Z,65.80
2018-04-24T14:40:01.356Z,65.80
2018-04-24T14:42:30.040Z,66.50
2018-04-24T14:44:58.978Z,67.30
2018-04-24T14:47:28.232Z,66.90
2018-04-24T14:49:56.766Z,65.20
2018-04-24T14:52:25.601Z,66.50
2018-04-24T14:54:54.290Z,63.70
2018-04-24T14:57:23.286Z,64.40
2018-04-24T14:59:52.004Z,64.70
2018-04-24T15:02:20.748Z,65.20
2018-04-24T15:04:49.867Z,66.00
2018-04-24T15:07:18.878Z,64.50
2018-04-24T15:09:47.897Z,65.40
2018-04-24T15:12:16.661Z,65.90
2018-04-24T15:14:45.380Z,65.90
2018-04-24T15:17:14.919Z,66.90
2018-04-24T15:19:43.939Z,67.10
2018-04-24T15:22:12.654Z,67.50
2018-04-24T15:24:42.045Z,68.00
2018-04-24T15:27:10.567Z,67.90
2018-04-24T15:29:39.858Z,68.40
2018-04-24T15:32:09.149Z,67.50
2018-04-24T15:34:39.628Z,67.50
2018-04-24T15:37:08.284Z,68.60
2018-04-24T15:39:37.181Z,68.00
2018-04-24T15:42:06.215Z,67.40
2018-04-24T15:44:35.369Z,66.80
2018-04-24T15:47:04.325Z,65.80
2018-04-24T15:49:33.201Z,66.30
2018-04-24T15:52:02.180Z,66.70
2018-04-24T15:54:31.674Z,68.10
2018-04-24T15:57:00.692Z,66.40
2018-04-24T15:59:30.560Z,67.80
2018-04-24T16:01:59.251Z,66.90
2018-04-24T16:04:27.964Z,67.40
2018-04-24T16:06:56.706Z,67.60
2018-04-24T16:09:25.296Z,68.80
2018-04-24T16:11:54.599Z,67.50
2018-04-24T16:14:25.077Z,68.10
2018-04-24T16:16:53.973Z,69.00
2018-04-24T16:19:22.742Z,69.40
2018-04-24T16:21:51.810Z,69.40
2018-04-24T16:24:20.801Z,69.20
2018-04-24T16:26:49.516Z,68.40
2018-04-24T16:29:18.680Z,69.10
2018-04-24T16:31:47.566Z,69.00
2018-04-24T16:34:16.367Z,68.90
2018-04-24T16:36:46.258Z,69.00
2018-04-24T16:39:15.568Z,68.00
2018-04-24T16:41:44.882Z,68.30
2018-04-24T16:44:13.380Z,68.20
2018-04-24T16:46:42.008Z,68.30
2018-04-24T16:49:10.942Z,68.20
2018-04-24T16:51:39.611Z,69.30
2018-04-24T16:54:08.957Z,68.90
2018-04-24T16:56:37.554Z,68.80
2018-04-24T16:59:06.490Z,68.50
2018-04-24T17:01:35.680Z,68.10
2018-04-24T17:04:04.672Z,67.90
2018-04-24T17:06:33.366Z,67.80
2018-04-24T17:09:02.880Z,67.70
2018-04-24T17:11:32.000Z,67.50
2018-04-24T17:14:00.964Z,68.10
2018-04-24T17:16:30.825Z,68.20
2018-04-24T17:18:59.328Z,68.00
2018-04-24T17:21:28.369Z,68.10
2018-04-24T17:23:57.528Z,68.90
2018-04-24T17:26:28.684Z,69.40
2018-04-24T17:28:57.377Z,68.70
2018-04-24T17:31:26.471Z,68.80
2018-04-24T17:33:54.979Z,69.40
2018-04-24T17:36:23.529Z,69.50
2018-04-24T17:38:53.342Z,69.00
2018-04-24T17:41:22.003Z,69.00
2018-04-24T17:43:50.509Z,68.90
2018-04-24T17:46:19.034Z,69.10
2018-04-24T17:48:47.566Z,69.20
2018-04-24T17:51:16.099Z,69.20
2018-04-24T17:53:44.626Z,69.20
2018-04-24T17:56:13.140Z,69.90
2018-04-24T17:58:43.651Z,69.50
2018-04-24T18:01:12.162Z,68.90
2018-04-24T18:03:40.660Z,69.60
2018-04-24T18:06:09.159Z,70.00
2018-04-24T18:08:37.650Z,70.40
2018-04-24T18:11:06.262Z,70.80
2018-04-24T18:13:35.278Z,70.30
2018-04-24T18:16:03.796Z,71.30
2018-04-24T18:18:32.363Z,71.50
2018-04-24T18:21:00.943Z,71.90
2018-04-24T18:23:29.615Z,72.30
2018-04-24T18:25:58.283Z,72.50
2018-04-24T18:28:26.855Z,72.30
2018-04-24T18:30:55.410Z,72.60
2018-04-24T18:33:24.073Z,72.50
2018-04-24T18:35:52.601Z,73.10
2018-04-24T18:38:21.920Z,73.00
2018-04-24T18:40:50.450Z,72.90
2018-04-24T18:43:19.012Z,72.80
2018-04-24T18:45:47.670Z,72.90
2018-04-24T18:48:16.154Z,74.10
2018-04-24T18:50:45.232Z,74.70
2018-04-24T18:53:13.848Z,74.90
2018-04-24T18:55:42.321Z,75.00
2018-04-24T18:58:11.751Z,75.60
2018-04-24T19:00:40.221Z,75.70
2018-04-24T19:03:08.814Z,75.20
2018-04-24T19:05:37.330Z,75.40
2018-04-24T19:08:05.864Z,76.30
2018-04-24T19:10:34.981Z,76.70
2018-04-24T19:13:03.528Z,77.20
2018-04-24T19:15:32.042Z,77.20
2018-04-24T19:18:00.721Z,77.50
2018-04-24T19:20:29.229Z,77.60
2018-04-24T19:22:58.146Z,77.20
2018-04-24T19:25:32.385Z,77.30
2018-04-24T19:28:01.149Z,77.30
2018-04-24T19:30:29.630Z,76.80
2018-04-24T19:32:58.156Z,76.50
2018-04-24T19:35:26.635Z,76.80
2018-04-24T19:37:55.134Z,77.30
2018-04-24T19:40:30.006Z,77.30
2018-04-24T19:42:59.513Z,77.60
2018-04-24T19:45:27.972Z,77.60
2018-04-24T19:47:56.532Z,77.90
2018-04-24T19:50:25.041Z,78.30
2018-04-24T19:52:54.304Z,78.90
2018-04-24T19:55:26.721Z,78.90
2018-04-24T19:57:55.990Z,79.00
2018-04-24T20:00:24.485Z,79.00
2018-04-24T20:02:52.994Z,79.30
2018-04-24T20:05:22.287Z,79.20
2018-04-24T20:07:51.610Z,79.00
2018-04-24T20:10:20.264Z,78.90
2018-04-24T20:12:48.955Z,79.60
2018-04-24T20:15:17.564Z,79.60
2018-04-24T20:17:46.055Z,79.50
2018-04-24T20:20:14.534Z,79.70
2018-04-24T20:22:43.080Z,79.80
2018-04-24T20:25:12.333Z,80.00
2018-04-24T20:27:40.938Z,80.00
2018-04-24T20:30:09.597Z,79.70
2018-04-24T20:32:38.465Z,79.90
2018-04-24T20:35:06.988Z,80.30
2018-04-24T20:37:35.463Z,80.80
2018-04-24T20:40:04.006Z,80.40
2018-04-24T20:42:32.511Z,80.10
2018-04-24T20:45:01.032Z,80.50
2018-04-24T20:47:30.376Z,80.40
2018-04-24T20:49:58.857Z,80.40
2018-04-24T20:52:27.368Z,81.10
2018-04-24T20:55:04.490Z,80.40
2018-04-24T20:57:33.531Z,79.90
2018-04-24T21:00:02.598Z,80.20
2018-04-24T21:02:31.291Z,80.00
2018-04-24T21:04:59.981Z,80.20
2018-04-24T21:07:28.650Z,80.00
2018-04-24T21:09:57.767Z,80.20
2018-04-24T21:12:26.458Z,79.80
2018-04-24T21:15:08.737Z,79.70
2018-04-24T21:17:37.717Z,79.90
2018-04-24T21:20:06.927Z,80.10
2018-04-24T21:22:35.880Z,80.50
2018-04-24T21:25:04.706Z,80.30
2018-04-24T21:27:33.707Z,79.90
2018-04-24T21:30:02.474Z,79.80
2018-04-24T21:32:31.583Z,80.40
2018-04-24T21:35:00.646Z,79.80
2018-04-24T21:37:29.133Z,79.80
2018-04-24T21:39:59.721Z,80.00
2018-04-24T21:42:28.786Z,79.90
2018-04-24T21:44:57.799Z,79.90
2018-04-24T21:47:26.491Z,79.80
2018-04-24T21:49:55.238Z,79.50
2018-04-24T21:52:24.678Z,79.10
2018-04-24T21:54:53.318Z,79.50
2018-04-24T21:57:22.331Z,79.20
2018-04-24T21:59:51.223Z,79.10
2018-04-24T22:02:20.169Z,79.10
2018-04-24T22:04:49.006Z,79.40
2018-04-24T22:07:18.079Z,79.10
2018-04-24T22:09:46.579Z,79.00
2018-04-24T22:12:15.481Z,79.00
2018-04-24T22:14:44.155Z,79.10
2018-04-24T22:17:12.847Z,79.10
2018-04-24T22:19:42.351Z,79.00
2018-04-24T22:22:11.033Z,79.10
2018-04-24T22:24:40.046Z,79.30
2018-04-24T22:27:08.738Z,79.60
2018-04-24T22:29:37.754Z,79.80
2018-04-24T22:32:06.494Z,79.50
2018-04-24T22:34:35.076Z,79.40
2018-04-24T22:37:03.562Z,79.80
2018-04-24T22:39:32.247Z,80.20
2018-04-24T22:42:01.340Z,79.80
2018-04-24T22:44:30.435Z,80.10
2018-04-24T22:46:59.495Z,80.00
2018-04-24T22:49:28.514Z,80.10
2018-04-24T22:51:57.210Z,79.90
2018-04-24T22:54:25.899Z,80.10
2018-04-24T22:56:54.684Z,79.80
2018-04-24T22:59:23.708Z,79.60
2018-04-24T23:01:52.448Z,79.40
2018-04-24T23:04:21.968Z,79.40
2018-04-24T23:06:50.956Z,79.40
2018-04-24T23:09:19.647Z,79.30
2018-04-24T23:12:00.239Z,79.50
2018-04-24T23:14:46.694Z,79.50
2018-04-24T23:17:33.646Z,79.20
2018-04-24T23:20:17.161Z,79.30
2018-04-24T23:22:46.667Z,79.40
2018-04-24T23:25:15.745Z,79.20
2018-04-24T23:27:44.838Z,79.10
2018-04-24T23:30:13.747Z,79.20
2018-04-24T23:32:42.638Z,79.30
2018-04-24T23:35:11.287Z,78.80
2018-04-24T23:37:39.829Z,78.80
2018-04-24T23:40:08.596Z,79.00
2018-04-24T23:42:37.663Z,79.20
2018-04-24T23:45:06.356Z,79.20
2018-04-24T23:47:35.047Z,79.60
2018-04-24T23:50:03.739Z,79.10
2018-04-24T23:52:33.092Z,78.40
2018-04-24T23:55:01.834Z,77.50
2018-04-24T23:57:30.640Z,77.50
2018-04-24T23:59:59.820Z,77.40
